Marysville, Ohio
Current Conditions -  °F | °C
As of 8:33 AM on Sunday 23 Nov 2014 (Local Time) from KMRT Reporting Station
Overcast Overcast  
Wind Chill: 42°   Ceiling: 8000
Heat Index: 46°   Visibility: 10mi
Dew Point: 37°   Wind: 8mph
Humidity: 69%   Direction: 190°S
Pressure: 30"   Gusts: NA
Location:  40.24°N, 83.37°W
Report Text: KMRT 231333Z AUTO 19007KT 10SM SCT038 SCT046 OVC080 08/03 A3000 RMK AO2 T00780025
Loading
Personal Weather Stations






























Interactive Weather Map New forecast layout! Learn more

10-Day Weather Forecast

Advertisements
Track Severe Weather on mobile